»·PEaware :: N935RT KBFL-KMHV

N935RT :: KBFL-KMHV

FLIGHT INFORMATION

Flight Status: Arrived
Operator: Privately registered:
United States
More flights under this callsign
Pilot: Ryan M. (45333)
Aircraft: CESSNA 152 AEROBAT
(C152)
More flights by this aircraft type
Origin: KBFL Meadows
United States
Destination: KMHV Mojave
United States
More flights between these airports :: More routes between these airports
Route:
File this flight plan on PilotEdge
Remarks:
Altitude:
(Current/Filed)
7,500ft
Speed:
(Current/Filed)
0kts
Departed: 02-Nov-23 06:43 PM
Arrived: 02-Nov-23 07:22 PM
Distance/Time
Traveled:
50nm/0:39
Distance/Time
To Go:
Arrived

Flight Plot

Page will automatically refresh every two minutes.


Map Options




Map Legend


Flown Route
Filed Route
Departure Airport
Arrival Airport
Navaid (VOR, NDB)
Fix

Horizontal Profiles

Position Reports

Time Latitude Longitude Heading Altitude Ground
Speed
02-Nov-23 18:35 35.429111 -119.046456 135 481ft 0kts
02-Nov-23 18:36 35.429111 -119.046456 135 481ft 0kts
02-Nov-23 18:37 35.429111 -119.046456 135 481ft 0kts
02-Nov-23 18:38 35.426727 -119.045250 134 473ft 14kts
02-Nov-23 18:39 35.425796 -119.044687 218 471ft 0kts
02-Nov-23 18:40 35.425796 -119.044687 218 471ft 0kts
02-Nov-23 18:41 35.425795 -119.044688 217 471ft 0kts
02-Nov-23 18:42 35.428463 -119.049761 315 492ft 68kts
02-Nov-23 18:43 35.443725 -119.067501 320 1262ft 77kts
02-Nov-23 18:44 35.458269 -119.057725 108 1707ft 80kts
02-Nov-23 18:45 35.443243 -119.038808 140 2123ft 77kts
02-Nov-23 18:46 35.426250 -119.022092 141 2483ft 78kts
02-Nov-23 18:47 35.412993 -119.002446 94 2819ft 78kts
02-Nov-23 18:48 35.417258 -118.976372 71 3126ft 79kts
02-Nov-23 18:49 35.423409 -118.950450 88 3416ft 81kts
02-Nov-23 18:50 35.413245 -118.926758 131 4004ft 81kts
02-Nov-23 18:51 35.400731 -118.903403 121 4633ft 82kts
02-Nov-23 18:52 35.388702 -118.878887 124 5189ft 86kts
02-Nov-23 18:53 35.375099 -118.854859 135 5767ft 86kts
02-Nov-23 18:54 35.361586 -118.830403 115 6294ft 87kts
02-Nov-23 18:55 35.351174 -118.803347 117 6800ft 88kts
02-Nov-23 18:56 35.338741 -118.777203 126 7215ft 89kts
02-Nov-23 18:57 35.322600 -118.751915 124 7472ft 104kts
02-Nov-23 18:58 35.308289 -118.719042 110 7527ft 109kts
02-Nov-23 18:59 35.297360 -118.683979 106 7556ft 109kts
02-Nov-23 19:00 35.285750 -118.649433 116 7547ft 111kts
02-Nov-23 19:01 35.269660 -118.617428 117 7566ft 111kts
02-Nov-23 19:02 35.255690 -118.583771 112 7625ft 110kts
02-Nov-23 19:03 35.244063 -118.549257 107 7688ft 108kts
02-Nov-23 19:04 35.233948 -118.513779 110 7602ft 110kts
02-Nov-23 19:05 35.220875 -118.479985 119 7581ft 112kts
02-Nov-23 19:06 35.203629 -118.448617 125 7625ft 111kts
02-Nov-23 19:07 35.185445 -118.418137 128 7552ft 110kts
02-Nov-23 19:08 35.166507 -118.388274 127 7498ft 110kts
02-Nov-23 19:09 35.147464 -118.358423 128 7535ft 112kts
02-Nov-23 19:10 35.131474 -118.326082 115 7598ft 110kts
02-Nov-23 19:11 35.120259 -118.291332 105 7662ft 109kts
02-Nov-23 19:12 35.118202 -118.254547 78 6710ft 108kts
02-Nov-23 19:13 35.120901 -118.218296 91 5338ft 105kts
02-Nov-23 19:14 35.107010 -118.188775 137 4205ft 96kts
02-Nov-23 19:15 35.087461 -118.168868 193 3623ft 90kts
02-Nov-23 19:16 35.066278 -118.174102 154 3686ft 84kts
02-Nov-23 19:17 35.046522 -118.159439 147 3679ft 85kts
02-Nov-23 19:18 35.028179 -118.143422 143 3521ft 81kts
02-Nov-23 19:19 35.033885 -118.123610 5 3127ft 64kts
02-Nov-23 19:20 35.047091 -118.133903 315 2693ft 43kts
02-Nov-23 19:21 35.048687 -118.136070 292 2714ft 10kts
02-Nov-23 19:22 35.050409 -118.140073 316 2726ft 17kts
02-Nov-23 19:23 35.054039 -118.144424 315 2735ft 18kts
02-Nov-23 19:24 35.057390 -118.148491 314 2749ft 11kts
02-Nov-23 19:25 35.057133 -118.151330 176 2754ft 0kts

Navigation Log

Ident Type
Flight plan parsing failed, navigation log unavailable